Time;durP1;ratioP1;P1;durP2;ratioP2;P2;SDS_P1;SDS_P2;PMS_P1;PMS_P2;Temp;Humidity;BMP_temperature;BMP_pressure;BME280_temperature;BME280_humidity;BME280_pressure;Samples;Min_cycle;Max_cycle;Signal;HPM_P1;HPM_P2
2022/05/29 00:01:42;;;;;;;5.27;3.10;;;11.80;87.00;;;;;;5057440;28;20424;-46
2022/05/29 00:04:08;;;;;;;4.60;2.90;;;11.80;87.30;;;;;;5057460;28;20859;-46
2022/05/29 00:06:38;;;;;;;4.80;3.20;;;11.80;87.60;;;;;;5057376;28;20441;-46
2022/05/29 00:09:04;;;;;;;5.20;3.40;;;11.80;87.40;;;;;;5056710;28;20170;-45
2022/05/29 00:11:30;;;;;;;4.33;3.23;;;11.70;87.20;;;;;;5040086;28;20472;-46
2022/05/29 00:14:00;;;;;;;4.40;3.40;;;11.80;87.60;;;;;;5057582;28;20416;-45
2022/05/29 00:16:29;;;;;;;3.87;3.30;;;11.80;87.80;;;;;;5056634;28;20421;-45
2022/05/29 00:18:55;;;;;;;4.37;3.30;;;11.80;88.20;;;;;;5039544;28;20427;-45
2022/05/29 00:21:20;;;;;;;3.63;3.27;;;11.80;88.40;;;;;;5056336;28;20434;-46
2022/05/29 00:23:49;;;;;;;3.77;3.37;;;11.80;89.10;;;;;;5056571;28;20908;-46
2022/05/29 00:26:16;;;;;;;3.80;3.20;;;11.80;90.20;;;;;;5056407;28;20527;-53
2022/05/29 00:28:42;;;;;;;5.23;3.00;;;11.80;90.80;;;;;;5056811;28;20656;-45
2022/05/29 00:31:08;;;;;;;4.07;3.10;;;11.80;91.30;;;;;;5056486;28;20578;-46
2022/05/29 00:33:34;;;;;;;5.33;4.03;;;11.80;92.10;;;;;;5040120;28;20667;-45
2022/05/29 00:35:59;;;;;;;5.43;3.40;;;11.70;91.90;;;;;;5057572;28;20494;-45
2022/05/29 00:38:25;;;;;;;4.73;3.00;;;11.70;91.90;;;;;;5057586;28;20172;-45
2022/05/29 00:41:13;;;;;;;4.73;3.30;;;11.70;91.80;;;;;;5039356;28;20206;-45
2022/05/29 00:43:38;;;;;;;5.13;3.83;;;11.70;91.50;;;;;;5057789;28;20178;-47
2022/05/29 00:46:05;;;;;;;4.20;3.13;;;11.60;91.60;;;;;;5057389;28;20512;-46
2022/05/29 00:48:31;;;;;;;3.87;3.53;;;11.60;91.80;;;;;;5057501;28;20185;-45
2022/05/29 00:51:00;;;;;;;6.73;3.03;;;11.50;91.90;;;;;;5056678;28;20477;-46
2022/05/29 00:53:27;;;;;;;4.30;3.70;;;11.50;92.30;;;;;;5057721;28;20166;-45
2022/05/29 00:56:03;;;;;;;5.17;3.80;;;11.50;92.50;;;;;;5040081;28;20433;-45
2022/05/29 00:58:28;;;;;;;5.23;3.57;;;11.50;92.60;;;;;;5039614;28;20421;-45
2022/05/29 01:00:55;;;;;;;4.23;3.60;;;11.40;92.70;;;;;;5057254;28;20431;-46
2022/05/29 01:03:21;;;;;;;5.13;3.30;;;11.40;92.80;;;;;;5039308;28;20182;-45
2022/05/29 01:05:47;;;;;;;3.27;2.80;;;11.40;92.70;;;;;;5056696;28;20415;-46
2022/05/29 01:08:16;;;;;;;2.70;2.17;;;11.40;92.40;;;;;;5056210;28;20405;-45
2022/05/29 01:10:47;;;;;;;4.43;3.00;;;11.30;92.00;;;;;;5037949;28;20170;-45
2022/05/29 01:13:42;;;;;;;4.63;2.30;;;11.30;91.30;;;;;;5055367;28;20416;-45
2022/05/29 01:16:30;;;;;;;3.50;2.30;;;11.30;91.00;;;;;;5056350;28;20460;-45
2022/05/29 01:19:18;;;;;;;3.83;2.80;;;11.30;90.90;;;;;;5037066;28;20428;-45
2022/05/29 01:22:32;;;;;;;5.23;3.00;;;11.20;90.80;;;;;;5055282;28;20421;-45
2022/05/29 01:25:27;;;;;;;6.90;2.20;;;11.20;90.70;;;;;;5040590;28;20431;-45
2022/05/29 01:28:11;;;;;;;4.03;2.10;;;11.20;89.90;;;;;;5059616;28;20570;-45
2022/05/29 01:31:02;;;;;;;4.00;2.20;;;11.10;88.50;;;;;;5060509;28;20412;-45
2022/05/29 01:33:42;;;;;;;3.63;2.20;;;11.10;87.80;;;;;;5046037;28;20426;-45
2022/05/29 01:36:35;;;;;;;4.57;2.30;;;11.10;87.90;;;;;;5042303;28;20428;-46
2022/05/29 01:39:09;;;;;;;4.43;2.47;;;11.10;87.70;;;;;;5042996;28;20456;-45
2022/05/29 01:41:44;;;;;;;5.07;2.23;;;11.10;87.50;;;;;;5042650;28;20704;-46
2022/05/29 01:44:17;;;;;;;3.27;2.43;;;11.10;87.30;;;;;;5026339;28;20806;-45
2022/05/29 01:46:45;;;;;;;8.13;3.10;;;11.10;86.30;;;;;;5042052;28;20441;-46
2022/05/29 01:49:29;;;;;;;2.77;2.10;;;11.10;86.40;;;;;;5042590;28;20453;-45
2022/05/29 01:51:57;;;;;;;5.27;2.80;;;11.10;86.80;;;;;;5042751;28;20476;-45
2022/05/29 01:54:53;;;;;;;2.50;2.20;;;11.10;85.50;;;;;;5060486;28;20425;-45
2022/05/29 01:57:29;;;;;;;2.70;2.50;;;11.00;85.40;;;;;;5040618;28;20444;-45
2022/05/29 02:00:03;;;;;;;2.70;2.23;;;11.00;86.00;;;;;;5042438;28;20415;-45
2022/05/29 02:02:39;;;;;;;4.40;2.60;;;10.90;87.00;;;;;;5059564;28;20498;-45
2022/05/29 02:05:09;;;;;;;3.57;2.27;;;10.90;87.50;;;;;;5058700;28;20426;-45
2022/05/29 02:07:48;;;;;;;4.00;2.50;;;10.90;86.70;;;;;;5040718;28;20436;-45
2022/05/29 02:10:22;;;;;;;2.57;2.30;;;10.90;86.60;;;;;;5059468;28;20755;-45
2022/05/29 02:13:02;;;;;;;2.97;2.50;;;10.90;86.70;;;;;;5059150;28;20570;-45
2022/05/29 02:15:39;;;;;;;3.80;2.30;;;10.90;85.90;;;;;;5059527;28;20432;-45
2022/05/29 02:18:08;;;;;;;3.70;2.70;;;10.90;85.40;;;;;;5058396;28;20417;-45
2022/05/29 02:20:38;;;;;;;4.17;2.60;;;10.80;85.20;;;;;;5059177;28;20509;-45
2022/05/29 02:23:09;;;;;;;2.53;2.10;;;10.80;85.40;;;;;;5042199;28;20714;-45
2022/05/29 02:25:35;;;;;;;3.83;2.53;;;10.80;84.90;;;;;;5059644;28;20830;-45
2022/05/29 02:28:06;;;;;;;2.93;2.73;;;10.80;84.70;;;;;;5043076;28;20746;-46
2022/05/29 02:30:45;;;;;;;4.57;2.47;;;10.80;84.90;;;;;;5077619;28;20757;-45
2022/05/29 02:33:25;;;;;;;6.47;2.80;;;10.80;85.00;;;;;;5062141;28;20449;-45
2022/05/29 02:36:19;;;;;;;5.57;2.20;;;10.80;84.70;;;;;;5080141;28;20447;-46
2022/05/29 02:39:02;;;;;;;3.30;2.70;;;10.80;84.90;;;;;;5064926;28;20777;-46
2022/05/29 02:41:47;;;;;;;3.80;2.97;;;10.80;85.30;;;;;;5080013;28;20489;-45
2022/05/29 02:44:24;;;;;;;4.73;2.90;;;10.80;84.90;;;;;;5079891;28;20412;-45
2022/05/29 02:46:54;;;;;;;3.20;2.30;;;10.80;84.70;;;;;;5061279;28;20536;-45
2022/05/29 02:49:25;;;;;;;2.77;2.47;;;10.80;85.10;;;;;;5061150;28;20681;-45
2022/05/29 02:51:56;;;;;;;2.83;1.97;;;10.80;84.90;;;;;;5078608;28;20917;-45
2022/05/29 02:54:27;;;;;;;2.83;2.47;;;10.80;84.30;;;;;;5061604;28;20721;-46
2022/05/29 02:56:54;;;;;;;3.80;2.23;;;10.80;84.60;;;;;;5079362;28;20730;-45
2022/05/29 02:59:22;;;;;;;2.70;2.33;;;10.80;85.00;;;;;;5078912;28;20461;-45
2022/05/29 03:02:09;;;;;;;2.70;2.47;;;10.70;85.30;;;;;;5061497;28;20945;-45
2022/05/29 03:05:25;;;;;;;3.47;2.50;;;10.70;85.70;;;;;;5061946;28;20518;-45
2022/05/29 03:08:13;;;;;;;3.10;2.20;;;10.70;85.50;;;;;;4998294;28;20545;-45
2022/05/29 03:10:42;;;;;;;3.33;2.87;;;10.70;85.00;;;;;;4996882;28;20478;-45
2022/05/29 03:13:13;;;;;;;4.20;2.67;;;10.70;85.30;;;;;;5049073;28;20420;-45
2022/05/29 03:15:57;;;;;;;6.20;2.40;;;10.70;85.70;;;;;;5078037;28;20412;-45
2022/05/29 03:18:31;;;;;;;5.07;2.67;;;10.70;86.30;;;;;;5043623;28;20527;-45
2022/05/29 03:21:03;;;;;;;3.30;2.90;;;10.70;86.50;;;;;;5059827;28;20452;-45
2022/05/29 03:24:11;;;;;;;3.27;2.40;;;10.70;86.50;;;;;;5059571;28;20423;-45
2022/05/29 03:26:55;;;;;;;2.60;2.40;;;10.70;86.70;;;;;;5078496;28;20432;-44
2022/05/29 03:29:54;;;;;;;6.63;2.93;;;10.60;86.50;;;;;;5079175;28;20415;-45
2022/05/29 03:32:20;;;;;;;3.50;2.43;;;10.60;86.80;;;;;;5055183;28;20522;-45
2022/05/29 03:34:46;;;;;;;4.13;2.40;;;10.60;86.50;;;;;;5078375;28;20523;-45
2022/05/29 03:37:12;;;;;;;3.17;2.43;;;10.60;86.30;;;;;;5077388;28;20461;-45
2022/05/29 03:39:37;;;;;;;4.20;3.20;;;10.50;85.90;;;;;;5059756;28;20755;-45
2022/05/29 03:42:04;;;;;;;5.20;2.73;;;10.50;85.50;;;;;;5077314;28;20181;-45
2022/05/29 03:44:30;;;;;;;4.70;2.87;;;10.50;85.30;;;;;;5077465;28;20496;-45
2022/05/29 03:46:56;;;;;;;3.60;2.30;;;10.50;85.10;;;;;;5077268;28;20475;-45
2022/05/29 03:49:23;;;;;;;2.40;2.20;;;10.50;85.30;;;;;;5066079;28;20625;-45
2022/05/29 03:51:48;;;;;;;3.03;2.50;;;10.50;85.40;;;;;;5077685;28;20486;-45
2022/05/29 03:54:15;;;;;;;3.47;2.50;;;10.50;85.30;;;;;;5075370;28;20440;-45
2022/05/29 03:56:41;;;;;;;4.50;2.50;;;10.40;85.00;;;;;;5077953;28;20428;-45
2022/05/29 03:59:07;;;;;;;5.67;2.50;;;10.40;84.60;;;;;;5077549;28;20481;-45
2022/05/29 04:01:33;;;;;;;4.03;2.43;;;10.40;84.90;;;;;;5078813;28;20474;-46
2022/05/29 04:03:59;;;;;;;4.00;2.83;;;10.40;84.70;;;;;;5078394;28;20518;-46
2022/05/29 04:06:27;;;;;;;5.40;2.30;;;10.40;84.60;;;;;;5077100;28;20800;-46
2022/05/29 04:14:25;;;;;;;3.97;2.73;;;10.40;85.30;;;;;;5061294;28;20764;-46
2022/05/29 04:16:51;;;;;;;5.03;3.03;;;10.40;85.50;;;;;;5076798;28;20427;-46
2022/05/29 04:19:16;;;;;;;7.37;3.20;;;10.40;85.50;;;;;;5077071;28;20227;-46
2022/05/29 04:21:42;;;;;;;3.37;2.23;;;10.40;85.60;;;;;;5077541;28;20465;-46
2022/05/29 04:24:08;;;;;;;2.70;2.50;;;10.40;85.60;;;;;;5077480;28;20184;-46
2022/05/29 04:26:36;;;;;;;4.50;2.80;;;10.50;85.70;;;;;;5077382;28;20440;-46
2022/05/29 04:29:02;;;;;;;2.77;2.37;;;10.50;85.50;;;;;;5078014;28;20267;-44
2022/05/29 04:31:29;;;;;;;3.70;2.57;;;10.60;85.10;;;;;;5043156;28;20476;-44
2022/05/29 04:33:55;;;;;;;4.37;2.57;;;10.70;85.20;;;;;;5059852;28;20467;-44
2022/05/29 04:36:21;;;;;;;5.00;2.67;;;10.70;85.30;;;;;;5058882;28;20522;-44
2022/05/29 04:38:46;;;;;;;2.63;2.40;;;10.70;85.00;;;;;;5077210;28;20490;-44
2022/05/29 04:41:12;;;;;;;7.10;2.50;;;10.80;85.00;;;;;;5077653;28;20189;-44
2022/05/29 04:43:38;;;;;;;5.33;3.20;;;10.80;85.40;;;;;;5078144;28;20440;-45
2022/05/29 04:46:03;;;;;;;2.80;2.50;;;10.80;85.60;;;;;;5077546;28;20189;-44
2022/05/29 04:48:29;;;;;;;3.70;3.03;;;10.80;85.90;;;;;;5060243;28;20189;-44
2022/05/29 04:51:00;;;;;;;5.67;2.63;;;10.90;86.10;;;;;;5077503;28;20439;-43
2022/05/29 04:53:27;;;;;;;3.40;2.87;;;10.90;85.80;;;;;;5077774;28;20313;-44
2022/05/29 04:55:54;;;;;;;6.97;2.60;;;10.90;85.40;;;;;;5077521;28;20455;-43
2022/05/29 04:58:20;;;;;;;4.57;3.40;;;11.00;85.40;;;;;;5077609;28;20445;-44
2022/05/29 05:00:46;;;;;;;3.80;2.40;;;11.00;85.10;;;;;;5058896;28;20415;-44
2022/05/29 05:03:12;;;;;;;3.73;2.80;;;11.10;85.00;;;;;;5077464;28;20530;-45
2022/05/29 05:05:37;;;;;;;5.40;2.93;;;11.30;85.00;;;;;;5077763;28;20169;-44
2022/05/29 05:08:04;;;;;;;3.47;2.33;;;11.40;84.60;;;;;;5077720;28;20192;-44
2022/05/29 05:10:29;;;;;;;6.07;3.00;;;11.60;84.50;;;;;;5076976;28;20555;-44
2022/05/29 05:12:55;;;;;;;4.63;3.13;;;11.70;83.70;;;;;;5076357;28;20467;-44
2022/05/29 05:15:21;;;;;;;3.00;2.00;;;11.90;83.20;;;;;;5076963;28;20176;-44
2022/05/29 05:17:47;;;;;;;5.13;2.83;;;12.00;82.70;;;;;;5077618;28;20185;-44
2022/05/29 05:20:13;;;;;;;2.90;2.17;;;12.20;81.90;;;;;;5077733;28;20419;-44
2022/05/29 05:22:39;;;;;;;2.73;1.90;;;12.40;81.40;;;;;;5059347;28;20466;-45
2022/05/29 05:25:05;;;;;;;10.23;2.90;;;12.50;81.40;;;;;;5058309;28;20412;-45
2022/05/29 05:27:31;;;;;;;5.33;2.50;;;12.60;81.40;;;;;;5077153;28;20431;-45
2022/05/29 05:29:57;;;;;;;2.30;1.90;;;12.70;80.90;;;;;;5075934;28;20454;-45
2022/05/29 05:32:22;;;;;;;4.73;2.43;;;12.80;80.90;;;;;;5075666;28;20579;-45
2022/05/29 05:34:48;;;;;;;5.03;2.37;;;12.90;81.00;;;;;;5075183;28;20281;-45
2022/05/29 05:37:15;;;;;;;3.77;2.10;;;12.90;80.50;;;;;;5075791;28;20250;-46
2022/05/29 05:39:41;;;;;;;3.00;2.23;;;13.00;80.30;;;;;;5076591;28;20551;-46
2022/05/29 05:42:07;;;;;;;2.60;1.83;;;13.20;80.10;;;;;;5076424;28;20458;-45
2022/05/29 05:44:33;;;;;;;6.33;2.70;;;13.30;80.00;;;;;;5076905;28;20559;-45
2022/05/29 05:46:58;;;;;;;3.53;2.20;;;13.40;78.90;;;;;;5058146;28;20515;-45
2022/05/29 05:49:24;;;;;;;5.10;2.67;;;13.50;78.90;;;;;;5077404;28;20511;-45
2022/05/29 05:51:51;;;;;;;4.47;2.87;;;13.60;78.80;;;;;;5058552;28;20221;-45
2022/05/29 05:54:18;;;;;;;2.80;2.20;;;13.80;78.30;;;;;;5074485;28;20427;-45
2022/05/29 05:56:47;;;;;;;4.67;2.20;;;14.00;77.60;;;;;;5057017;28;20443;-45
2022/05/29 05:59:13;;;;;;;4.00;2.40;;;14.10;76.50;;;;;;5074228;28;20746;-45
2022/05/29 06:01:39;;;;;;;2.80;2.60;;;14.20;76.30;;;;;;5074328;28;20443;-45
2022/05/29 06:04:05;;;;;;;3.73;3.00;;;14.30;76.30;;;;;;5074060;28;20257;-46
2022/05/29 06:06:31;;;;;;;5.77;3.03;;;14.40;75.70;;;;;;5072810;28;20469;-45
2022/05/29 06:08:57;;;;;;;3.67;2.20;;;14.50;75.00;;;;;;5075054;28;20264;-46
2022/05/29 06:11:27;;;;;;;3.83;2.17;;;14.50;74.90;;;;;;5065346;28;20236;-46
2022/05/29 06:13:53;;;;;;;4.47;2.00;;;14.60;75.20;;;;;;5039422;28;20417;-45
2022/05/29 06:16:19;;;;;;;4.07;2.23;;;14.80;75.10;;;;;;5057790;28;20511;-46
2022/05/29 06:18:45;;;;;;;4.10;2.10;;;15.00;74.40;;;;;;5057518;28;20499;-45
2022/05/29 06:21:11;;;;;;;6.13;2.83;;;15.10;73.70;;;;;;5040655;28;20554;-46
2022/05/29 06:23:38;;;;;;;2.37;1.60;;;15.20;73.10;;;;;;5066607;28;20187;-45
2022/05/29 06:26:12;;;;;;;5.13;2.10;;;15.30;72.80;;;;;;5061007;28;20190;-45
2022/05/29 06:28:37;;;;;;;4.60;2.03;;;15.50;72.40;;;;;;5061641;28;20426;-45
2022/05/29 06:31:04;;;;;;;4.70;2.17;;;15.60;71.40;;;;;;5079780;28;20492;-46
2022/05/29 06:33:30;;;;;;;4.20;2.20;;;15.60;70.90;;;;;;5079961;28;20173;-46
2022/05/29 06:36:10;;;;;;;2.30;1.80;;;15.70;70.50;;;;;;5079934;28;20426;-46
2022/05/29 06:38:36;;;;;;;3.10;2.37;;;15.70;70.00;;;;;;5080499;28;20419;-45
2022/05/29 06:41:09;;;;;;;2.40;1.77;;;15.70;69.50;;;;;;5080278;28;20451;-46
2022/05/29 06:43:43;;;;;;;3.30;2.43;;;15.70;69.10;;;;;;5062574;28;20422;-46
2022/05/29 06:46:10;;;;;;;4.20;2.40;;;15.70;68.60;;;;;;5080386;28;20864;-45
2022/05/29 06:48:37;;;;;;;5.63;2.53;;;15.80;68.20;;;;;;5080146;28;20423;-46
2022/05/29 06:51:19;;;;;;;3.50;2.00;;;15.80;67.60;;;;;;5080316;28;20526;-46
2022/05/29 06:53:45;;;;;;;5.90;2.60;;;15.70;67.10;;;;;;5079335;28;20400;-46
2022/05/29 06:56:12;;;;;;;3.00;2.70;;;15.70;67.00;;;;;;5077885;28;20428;-46
2022/05/29 06:58:38;;;;;;;3.17;2.23;;;15.60;66.80;;;;;;5078331;28;20412;-45
2022/05/29 07:07:00;;;;;;;6.33;2.10;;;15.80;67.40;;;;;;5077713;28;20438;-48
2022/05/29 07:09:37;;;;;;;3.70;1.90;;;15.90;66.80;;;;;;5062081;28;20412;-44
2022/05/29 07:12:07;;;;;;;2.30;2.00;;;16.00;66.10;;;;;;5078445;28;20509;-49
2022/05/29 07:14:37;;;;;;;4.03;2.30;;;16.10;66.20;;;;;;5076915;28;20416;-48
2022/05/29 07:17:02;;;;;;;5.57;2.00;;;16.40;65.50;;;;;;5077365;28;20689;-46
2022/05/29 07:19:28;;;;;;;2.57;2.07;;;16.60;65.30;;;;;;5077722;28;20420;-46
2022/05/29 07:21:57;;;;;;;3.20;2.10;;;16.80;64.60;;;;;;5078581;28;20442;-44
2022/05/29 07:24:23;;;;;;;4.40;2.20;;;17.00;62.80;;;;;;5059930;28;20496;-48
2022/05/29 07:26:49;;;;;;;3.10;1.93;;;17.40;63.00;;;;;;5077920;28;20506;-49
2022/05/29 07:29:17;;;;;;;2.70;2.03;;;17.80;61.90;;;;;;5077622;28;20420;-46
2022/05/29 07:31:44;;;;;;;3.30;2.00;;;18.20;60.40;;;;;;5076900;28;20202;-48
2022/05/29 07:34:10;;;;;;;4.27;2.00;;;18.50;58.80;;;;;;5077014;28;20467;-44
2022/05/29 07:36:35;;;;;;;3.63;1.90;;;19.10;58.90;;;;;;5076681;28;20762;-49
2022/05/29 07:39:01;;;;;;;4.27;2.03;;;19.80;56.90;;;;;;5077759;28;20176;-46
2022/05/29 07:44:13;;;;;;;3.97;2.10;;;20.50;54.00;;;;;;5076854;28;20452;-48
2022/05/29 07:46:38;;;;;;;3.50;1.70;;;20.90;52.90;;;;;;5077497;28;20559;-46
2022/05/29 07:49:04;;;;;;;3.57;2.30;;;21.10;52.10;;;;;;5077817;28;20569;-44
2022/05/29 07:51:30;;;;;;;4.93;2.30;;;21.20;51.10;;;;;;5078486;28;20227;-45
2022/05/29 07:53:57;;;;;;;2.77;2.30;;;20.80;50.60;;;;;;5078355;28;20183;-48
2022/05/29 07:56:25;;;;;;;3.90;2.27;;;20.30;51.10;;;;;;5078123;28;20186;-46
2022/05/29 07:58:50;;;;;;;3.93;2.40;;;19.60;51.20;;;;;;5044129;28;20436;-48
2022/05/29 08:01:16;;;;;;;3.13;2.07;;;19.00;52.10;;;;;;5076660;28;20449;-47
2022/05/29 08:03:42;;;;;;;3.00;1.80;;;18.50;52.90;;;;;;5068732;28;20192;-46
2022/05/29 08:06:09;;;;;;;2.17;1.93;;;17.90;53.10;;;;;;5041366;28;20199;-46
2022/05/29 08:08:35;;;;;;;2.60;1.93;;;17.70;53.60;;;;;;5076264;28;20532;-46
2022/05/29 08:11:01;;;;;;;2.50;1.90;;;17.40;53.90;;;;;;5075141;28;20462;-47
2022/05/29 08:13:28;;;;;;;4.00;2.60;;;17.10;54.50;;;;;;5078350;28;20447;-47
2022/05/29 08:15:54;;;;;;;6.67;2.60;;;17.10;55.40;;;;;;5062338;28;20933;-51
2022/05/29 08:18:19;;;;;;;7.30;2.50;;;16.90;57.30;;;;;;5077463;28;20462;-48
2022/05/29 08:20:45;;;;;;;3.33;2.60;;;16.70;58.00;;;;;;5072495;28;20205;-46
2022/05/29 08:23:11;;;;;;;5.23;2.80;;;16.40;58.90;;;;;;5048400;28;20198;-46
2022/05/29 08:31:05;;;;;;;4.60;2.20;;;15.40;61.70;;;;;;5077254;28;20518;-47
2022/05/29 08:33:33;;;;;;;6.20;2.60;;;15.20;63.30;;;;;;5059470;28;20514;-49
2022/05/29 08:36:11;;;;;;;6.10;3.00;;;15.00;63.70;;;;;;5059357;28;20174;-46
2022/05/29 08:38:40;;;;;;;3.67;2.27;;;14.90;63.90;;;;;;5059857;28;20819;-46
2022/05/29 08:41:36;;;;;;;3.50;2.00;;;14.90;63.90;;;;;;5076680;28;20766;-48
2022/05/29 08:44:08;;;;;;;4.27;2.33;;;14.70;64.50;;;;;;5048765;28;20420;-44
2022/05/29 08:46:43;;;;;;;4.90;2.57;;;14.50;64.20;;;;;;5076872;28;20450;-46
2022/05/29 08:49:11;;;;;;;3.27;2.10;;;14.40;64.40;;;;;;5060233;28;20729;-46
2022/05/29 08:52:00;;;;;;;5.27;2.50;;;14.30;65.30;;;;;;5059325;28;20482;-43
2022/05/29 08:54:38;;;;;;;3.03;2.10;;;14.30;65.70;;;;;;5059071;28;20421;-48
2022/05/29 08:57:04;;;;;;;5.47;2.63;;;14.40;65.90;;;;;;5076411;28;20427;-47
2022/05/29 08:59:44;;;;;;;3.00;2.20;;;14.50;66.00;;;;;;5077296;28;20411;-46
2022/05/29 09:02:33;;;;;;;3.70;2.30;;;14.80;65.20;;;;;;5076336;28;20182;-48
2022/05/29 09:05:20;;;;;;;4.77;2.00;;;15.10;65.20;;;;;;5076298;28;20434;-48
2022/05/29 09:07:49;;;;;;;3.20;2.60;;;15.40;63.20;;;;;;5076038;28;20841;-44
2022/05/29 09:10:17;;;;;;;3.37;2.03;;;15.60;60.90;;;;;;5074491;28;20766;-47
2022/05/29 09:12:53;;;;;;;3.20;2.03;;;15.70;60.10;;;;;;5075328;28;20517;-49
2022/05/29 09:15:44;;;;;;;3.73;1.90;;;15.80;60.60;;;;;;5076002;28;20867;-49
2022/05/29 09:18:14;;;;;;;5.47;1.87;;;16.20;60.60;;;;;;5076205;28;20578;-49
2022/05/29 09:20:46;;;;;;;3.33;1.70;;;16.90;59.30;;;;;;5059449;28;20408;-44
2022/05/29 09:23:17;;;;;;;2.10;1.23;;;17.90;57.00;;;;;;5076541;28;20416;-49
2022/05/29 09:25:44;;;;;;;2.10;1.33;;;18.60;55.10;;;;;;5075883;28;20430;-49
2022/05/29 09:28:24;;;;;;;2.90;2.03;;;18.90;53.90;;;;;;5058955;28;20760;-47
2022/05/29 09:30:52;;;;;;;2.37;1.53;;;19.00;54.40;;;;;;5075986;28;20433;-46
2022/05/29 09:33:30;;;;;;;5.30;1.90;;;19.10;53.60;;;;;;5058495;28;20726;-48
2022/05/29 09:36:00;;;;;;;3.27;1.60;;;19.30;53.30;;;;;;5076509;28;20435;-45
2022/05/29 09:38:30;;;;;;;3.17;1.70;;;19.60;51.60;;;;;;5076648;28;20412;-49
2022/05/29 09:41:06;;;;;;;5.73;1.90;;;20.20;50.50;;;;;;5076898;28;20682;-45
2022/05/29 09:43:32;;;;;;;3.07;1.60;;;20.70;49.10;;;;;;5058609;28;20416;-47
2022/05/29 09:46:21;;;;;;;3.90;1.30;;;21.30;47.70;;;;;;5076007;28;20432;-46
2022/05/29 09:52:16;;;;;;;1.97;1.53;;;22.40;44.80;;;;;;5064907;28;20920;-47
2022/05/29 09:54:51;;;;;;;2.70;1.57;;;22.00;43.70;;;;;;5029921;28;20536;-48
2022/05/29 09:57:23;;;;;;;2.07;1.50;;;21.30;44.30;;;;;;5080954;28;20437;-47
2022/05/29 09:59:55;;;;;;;2.33;1.33;;;20.50;45.30;;;;;;5080647;28;20405;-48
2022/05/29 10:02:29;;;;;;;2.00;1.60;;;19.80;46.00;;;;;;5062051;28;20533;-45
2022/05/29 10:04:59;;;;;;;3.63;2.47;;;19.20;47.00;;;;;;5061544;28;20806;-45
2022/05/29 10:07:42;;;;;;;2.63;1.70;;;18.80;48.10;;;;;;5078548;28;20729;-47
2022/05/29 10:10:25;;;;;;;5.43;2.00;;;18.30;49.20;;;;;;5077021;28;20826;-44
2022/05/29 10:12:53;;;;;;;3.43;2.00;;;18.10;50.40;;;;;;5078931;28;20553;-45
2022/05/29 10:15:25;;;;;;;5.17;3.00;;;17.90;51.50;;;;;;5079755;28;20184;-48
2022/05/29 10:18:05;;;;;;;8.30;2.50;;;17.70;52.70;;;;;;5079723;28;20424;-46
2022/05/29 10:20:42;;;;;;;2.83;2.03;;;17.60;53.30;;;;;;5078796;28;20414;-46
2022/05/29 10:23:09;;;;;;;2.63;1.80;;;17.50;53.50;;;;;;5078411;28;20409;-47
2022/05/29 10:25:53;;;;;;;2.40;1.90;;;17.50;53.30;;;;;;5061598;28;20477;-46
2022/05/29 10:28:29;;;;;;;3.23;2.37;;;17.90;53.40;;;;;;5061759;28;20441;-47
2022/05/29 10:31:00;;;;;;;3.47;2.00;;;18.40;51.80;;;;;;5079640;28;20576;-45
2022/05/29 10:33:28;;;;;;;4.53;2.40;;;19.20;50.90;;;;;;5078783;28;20828;-45
2022/05/29 10:36:17;;;;;;;2.07;1.40;;;19.90;50.10;;;;;;5061086;28;20438;-46
2022/05/29 10:38:44;;;;;;;2.60;1.50;;;20.30;49.60;;;;;;5077885;28;20469;-49
2022/05/29 10:41:10;;;;;;;3.63;1.57;;;20.90;48.90;;;;;;5077752;28;20428;-47
2022/05/29 10:43:43;;;;;;;4.23;1.77;;;21.40;47.90;;;;;;5060909;28;20748;-47
2022/05/29 10:46:39;;;;;;;3.00;1.80;;;21.50;47.70;;;;;;5079923;28;21122;-48
2022/05/29 10:49:26;;;;;;;4.93;2.33;;;21.40;47.50;;;;;;5068923;28;20775;-44
2022/05/29 10:52:16;;;;;;;2.93;1.70;;;21.40;47.60;;;;;;5079376;28;20791;-46
2022/05/29 10:55:22;;;;;;;1.87;1.43;;;21.50;47.20;;;;;;5079807;28;20729;-47
2022/05/29 10:57:47;;;;;;;1.50;1.03;;;22.00;47.00;;;;;;5077820;28;20427;-45
2022/05/29 11:00:43;;;;;;;2.50;0.90;;;22.60;47.90;;;;;;5063853;28;20491;-46
2022/05/29 11:03:47;;;;;;;1.90;1.17;;;23.00;50.60;;;;;;5041133;28;20182;-46
2022/05/29 11:06:37;;;;;;;3.10;0.80;;;23.20;49.10;;;;;;5041036;28;20986;-45
2022/05/29 11:09:44;;;;;;;1.40;0.90;;;23.70;47.80;;;;;;5040762;28;20518;-44
2022/05/29 11:12:25;;;;;;;1.67;1.07;;;23.80;46.80;;;;;;4977014;28;20488;-45
2022/05/29 11:15:00;;;;;;;1.50;0.90;;;23.60;46.70;;;;;;5019362;28;20475;-48
2022/05/29 11:17:47;;;;;;;2.13;1.20;;;23.70;45.80;;;;;;5057123;28;20437;-46
2022/05/29 11:20:39;;;;;;;0.90;0.60;;;23.70;45.60;;;;;;5040147;28;20429;-46
2022/05/29 11:23:42;;;;;;;1.30;1.00;;;23.70;45.20;;;;;;5043369;28;20426;-45
2022/05/29 11:26:29;;;;;;;1.93;0.97;;;23.90;44.20;;;;;;5057361;28;20441;-45
2022/05/29 11:28:58;;;;;;;1.43;0.80;;;24.10;44.00;;;;;;5056950;28;20454;-45
2022/05/29 11:31:27;;;;;;;1.30;0.73;;;24.30;43.40;;;;;;5057695;28;20997;-47
2022/05/29 11:34:10;;;;;;;1.10;0.80;;;25.10;42.80;;;;;;5062485;28;20468;-44
2022/05/29 11:36:47;;;;;;;1.80;1.00;;;26.30;41.70;;;;;;5077604;28;20434;-45
2022/05/29 11:39:25;;;;;;;1.70;0.97;;;28.30;39.40;;;;;;5077417;28;20403;-46
2022/05/29 11:41:55;;;;;;;1.60;1.00;;;30.30;36.90;;;;;;5076852;28;20522;-47
2022/05/29 11:44:21;;;;;;;1.30;0.90;;;30.90;34.70;;;;;;5079192;28;20408;-46
2022/05/29 11:52:46;;;;;;;1.30;1.03;;;29.30;35.10;;;;;;5076922;28;20920;-48
2022/05/29 11:55:21;;;;;;;1.90;1.30;;;29.10;35.30;;;;;;5059763;28;20408;-43
2022/05/29 11:58:04;;;;;;;1.87;0.80;;;28.70;35.00;;;;;;5076271;28;20430;-44
2022/05/29 12:01:12;;;;;;;1.63;0.83;;;28.30;35.40;;;;;;5058550;28;20402;-43
2022/05/29 12:04:17;;;;;;;2.30;0.90;;;28.10;35.70;;;;;;4996210;28;20510;-44
2022/05/29 12:07:13;;;;;;;1.30;1.00;;;27.80;35.60;;;;;;5075138;28;20717;-47
2022/05/29 12:10:01;;;;;;;1.60;1.10;;;27.80;35.50;;;;;;5069721;28;20407;-45
2022/05/29 12:12:34;;;;;;;1.70;1.13;;;28.80;35.00;;;;;;5058854;28;20482;-46
2022/05/29 12:15:08;;;;;;;1.90;1.30;;;30.40;34.00;;;;;;5044505;28;20427;-46
2022/05/29 12:17:36;;;;;;;3.13;1.13;;;31.80;32.20;;;;;;5077122;28;20746;-47
2022/05/29 12:20:28;;;;;;;3.73;0.90;;;33.00;31.50;;;;;;5077093;28;20419;-45
2022/05/29 12:23:02;;;;;;;1.93;1.00;;;34.00;30.70;;;;;;5062057;28;20405;-53
2022/05/29 12:25:33;;;;;;;4.93;1.20;;;34.10;30.50;;;;;;5076192;28;20396;-51
2022/05/29 12:28:02;;;;;;;1.50;0.90;;;33.60;30.50;;;;;;5059254;28;20815;-48
2022/05/29 12:30:36;;;;;;;1.67;1.17;;;32.90;30.60;;;;;;5076897;28;20903;-49
2022/05/29 12:33:10;;;;;;;2.93;1.00;;;32.10;30.90;;;;;;5042170;28;20441;-49
2022/05/29 12:35:38;;;;;;;3.30;1.20;;;31.00;30.40;;;;;;5075079;28;20463;-51
2022/05/29 12:38:29;;;;;;;1.27;1.00;;;29.80;31.20;;;;;;5057164;28;20434;-50
2022/05/29 12:41:13;;;;;;;2.40;0.90;;;28.30;32.20;;;;;;5075517;28;20434;-49
2022/05/29 12:43:59;;;;;;;2.40;1.13;;;27.10;33.60;;;;;;5075551;28;20414;-49
2022/05/29 12:46:56;;;;;;;1.80;1.30;;;26.00;34.10;;;;;;5076430;28;20420;-49
2022/05/29 12:49:43;;;;;;;3.70;1.10;;;25.00;35.70;;;;;;5026594;28;20844;-48
2022/05/29 12:52:43;;;;;;;1.50;1.17;;;24.30;35.70;;;;;;5077185;28;20467;-43
2022/05/29 12:55:46;;;;;;;2.57;1.30;;;23.70;35.40;;;;;;5058575;28;20419;-51
2022/05/29 12:58:27;;;;;;;2.13;1.20;;;23.10;37.20;;;;;;5058729;28;20452;-48
2022/05/29 13:01:05;;;;;;;2.43;1.10;;;23.50;37.50;;;;;;5076592;28;20500;-46
2022/05/29 13:03:35;;;;;;;1.67;1.03;;;24.40;36.50;;;;;;5076367;28;20714;-49
2022/05/29 13:06:19;;;;;;;1.30;0.83;;;25.40;36.80;;;;;;5075394;28;20451;-48
2022/05/29 13:09:06;;;;;;;2.40;0.80;;;26.10;35.00;;;;;;5074801;28;20405;-49
2022/05/29 13:11:35;;;;;;;2.03;0.90;;;27.10;33.30;;;;;;5073179;28;20495;-47
2022/05/29 13:14:04;;;;;;;2.17;0.90;;;27.80;33.10;;;;;;5075123;28;20478;-49
2022/05/29 13:16:33;;;;;;;2.27;0.90;;;28.30;32.30;;;;;;5073409;28;20708;-49
2022/05/29 13:19:17;;;;;;;3.63;1.00;;;28.20;31.30;;;;;;5057528;28;20446;-49
2022/05/29 13:22:07;;;;;;;1.60;1.00;;;28.40;32.20;;;;;;5075685;28;20519;-50
2022/05/29 13:24:45;;;;;;;1.50;1.20;;;28.60;31.80;;;;;;5075911;28;20422;-48
2022/05/29 13:27:17;;;;;;;2.43;1.03;;;29.00;31.50;;;;;;5057548;28;20432;-49
2022/05/29 13:29:51;;;;;;;1.83;1.20;;;29.00;31.70;;;;;;5076261;28;20491;-49
2022/05/29 13:32:28;;;;;;;1.70;1.07;;;28.70;31.40;;;;;;5058286;28;20524;-49
2022/05/29 13:35:03;;;;;;;1.70;1.10;;;28.50;31.20;;;;;;5074080;28;20463;-51
2022/05/29 13:37:32;;;;;;;2.50;1.23;;;28.20;31.30;;;;;;5073800;28;20518;-49
2022/05/29 13:40:06;;;;;;;2.47;1.10;;;27.40;32.30;;;;;;5073862;28;20698;-48
2022/05/29 13:42:42;;;;;;;2.10;1.20;;;26.80;32.60;;;;;;5057931;28;20441;-50
2022/05/29 13:45:30;;;;;;;2.10;1.53;;;27.00;31.50;;;;;;5075946;28;20423;-49
2022/05/29 13:48:05;;;;;;;2.67;1.40;;;27.10;33.10;;;;;;5062209;28;20449;-51
2022/05/29 13:50:51;;;;;;;3.03;2.00;;;26.40;34.60;;;;;;5073462;28;20756;-49